sensor_id;sensor_type;location;lat;lon;timestamp;temperature;humidity
23122;DHT22;11730;51.248;22.534;2024-03-23T00:53:50;9.00;1.00
23122;DHT22;11730;51.248;22.534;2024-03-23T00:56:16;8.90;1.00
23122;DHT22;11730;51.248;22.534;2024-03-23T00:58:42;9.10;1.00
23122;DHT22;11730;51.248;22.534;2024-03-23T01:01:08;9.10;1.00
23122;DHT22;11730;51.248;22.534;2024-03-23T01:03:34;9.10;1.00
23122;DHT22;11730;51.248;22.534;2024-03-23T01:06:01;9.10;1.00
23122;DHT22;11730;51.248;22.534;2024-03-23T01:08:27;9.20;1.00
23122;DHT22;11730;51.248;22.534;2024-03-23T01:11:00;10.10;1.00
23122;DHT22;11730;51.248;22.534;2024-03-23T01:13:30;9.00;1.00
23122;DHT22;11730;51.248;22.534;2024-03-23T01:15:56;8.90;1.00
23122;DHT22;11730;51.248;22.534;2024-03-23T01:18:23;8.90;1.00
23122;DHT22;11730;51.248;22.534;2024-03-23T01:20:49;8.90;1.00
23122;DHT22;11730;51.248;22.534;2024-03-23T01:23:15;8.90;1.00
23122;DHT22;11730;51.248;22.534;2024-03-23T01:25:41;8.90;1.00
23122;DHT22;11730;51.248;22.534;2024-03-23T01:28:07;8.90;1.00
23122;DHT22;11730;51.248;22.534;2024-03-23T01:30:34;8.90;1.00
23122;DHT22;11730;51.248;22.534;2024-03-23T01:33:01;8.90;1.00
23122;DHT22;11730;51.248;22.534;2024-03-23T01:35:27;8.90;1.00
23122;DHT22;11730;51.248;22.534;2024-03-23T01:37:53;8.90;1.00
23122;DHT22;11730;51.248;22.534;2024-03-23T01:40:19;9.00;1.00
23122;DHT22;11730;51.248;22.534;2024-03-23T01:43:06;8.90;1.00
23122;DHT22;11730;51.248;22.534;2024-03-23T01:45:34;8.90;1.00
23122;DHT22;11730;51.248;22.534;2024-03-23T01:48:01;9.00;1.00
23122;DHT22;11730;51.248;22.534;2024-03-23T01:50:28;9.00;1.00
23122;DHT22;11730;51.248;22.534;2024-03-23T01:52:54;9.00;1.00
23122;DHT22;11730;51.248;22.534;2024-03-23T01:55:20;9.00;1.00
23122;DHT22;11730;51.248;22.534;2024-03-23T01:57:46;9.00;1.00
23122;DHT22;11730;51.248;22.534;2024-03-23T02:00:13;8.90;1.00
23122;DHT22;11730;51.248;22.534;2024-03-23T02:02:45;8.90;1.00
23122;DHT22;11730;51.248;22.534;2024-03-23T02:05:12;8.80;1.00
23122;DHT22;11730;51.248;22.534;2024-03-23T02:07:39;8.80;1.00
23122;DHT22;11730;51.248;22.534;2024-03-23T02:10:10;8.80;1.00
23122;DHT22;11730;51.248;22.534;2024-03-23T02:12:37;8.90;1.00
23122;DHT22;11730;51.248;22.534;2024-03-23T02:15:03;9.00;1.00
23122;DHT22;11730;51.248;22.534;2024-03-23T02:17:30;8.80;1.00
23122;DHT22;11730;51.248;22.534;2024-03-23T02:19:57;8.80;1.00
23122;DHT22;11730;51.248;22.534;2024-03-23T02:22:22;8.80;1.00
23122;DHT22;11730;51.248;22.534;2024-03-23T02:24:48;9.70;1.00
23122;DHT22;11730;51.248;22.534;2024-03-23T02:27:14;8.80;1.00
23122;DHT22;11730;51.248;22.534;2024-03-23T02:29:40;8.70;1.00
23122;DHT22;11730;51.248;22.534;2024-03-23T02:32:06;8.70;1.00
23122;DHT22;11730;51.248;22.534;2024-03-23T02:34:35;8.70;1.00
23122;DHT22;11730;51.248;22.534;2024-03-23T02:37:01;8.70;1.00
23122;DHT22;11730;51.248;22.534;2024-03-23T02:39:27;8.80;1.00
23122;DHT22;11730;51.248;22.534;2024-03-23T02:41:53;8.70;1.00
23122;DHT22;11730;51.248;22.534;2024-03-23T02:44:19;8.70;1.00
23122;DHT22;11730;51.248;22.534;2024-03-23T02:46:45;8.70;1.00
23122;DHT22;11730;51.248;22.534;2024-03-23T02:49:12;8.70;1.00
23122;DHT22;11730;51.248;22.534;2024-03-23T02:51:38;8.70;1.00
23122;DHT22;11730;51.248;22.534;2024-03-23T02:54:04;8.70;1.00
23122;DHT22;11730;51.248;22.534;2024-03-23T02:56:32;8.70;1.00
23122;DHT22;11730;51.248;22.534;2024-03-23T02:58:58;8.70;1.00
23122;DHT22;11730;51.248;22.534;2024-03-23T03:01:24;8.70;1.00
23122;DHT22;11730;51.248;22.534;2024-03-23T03:03:51;8.60;1.00
23122;DHT22;11730;51.248;22.534;2024-03-23T03:06:24;8.70;1.00
23122;DHT22;11730;51.248;22.534;2024-03-23T03:08:50;8.60;1.00
23122;DHT22;11730;51.248;22.534;2024-03-23T03:11:16;8.50;1.00
23122;DHT22;11730;51.248;22.534;2024-03-23T03:13:42;8.50;1.00
23122;DHT22;11730;51.248;22.534;2024-03-23T03:16:10;8.60;1.00
23122;DHT22;11730;51.248;22.534;2024-03-23T03:18:36;8.60;1.00
23122;DHT22;11730;51.248;22.534;2024-03-23T03:21:02;8.60;1.00
23122;DHT22;11730;51.248;22.534;2024-03-23T03:23:28;8.60;1.00
23122;DHT22;11730;51.248;22.534;2024-03-23T03:25:54;8.60;1.00
23122;DHT22;11730;51.248;22.534;2024-03-23T03:28:20;8.60;1.00
23122;DHT22;11730;51.248;22.534;2024-03-23T03:30:46;8.60;1.00
23122;DHT22;11730;51.248;22.534;2024-03-23T03:33:12;8.50;1.00
23122;DHT22;11730;51.248;22.534;2024-03-23T03:35:38;8.40;1.00
23122;DHT22;11730;51.248;22.534;2024-03-23T03:38:05;8.30;1.00
23122;DHT22;11730;51.248;22.534;2024-03-23T03:40:30;8.40;1.00
23122;DHT22;11730;51.248;22.534;2024-03-23T03:42:56;8.40;1.00
23122;DHT22;11730;51.248;22.534;2024-03-23T03:45:22;8.30;1.00
23122;DHT22;11730;51.248;22.534;2024-03-23T03:47:48;8.40;1.00
23122;DHT22;11730;51.248;22.534;2024-03-23T03:50:14;8.30;1.00
23122;DHT22;11730;51.248;22.534;2024-03-23T03:52:41;8.30;1.00
23122;DHT22;11730;51.248;22.534;2024-03-23T03:55:13;8.30;1.00
23122;DHT22;11730;51.248;22.534;2024-03-23T03:57:39;8.40;1.00
23122;DHT22;11730;51.248;22.534;2024-03-23T04:00:07;8.30;1.00
23122;DHT22;11730;51.248;22.534;2024-03-23T04:02:37;8.30;1.00
23122;DHT22;11730;51.248;22.534;2024-03-23T04:05:04;8.20;1.00
23122;DHT22;11730;51.248;22.534;2024-03-23T04:07:30;8.20;1.00
23122;DHT22;11730;51.248;22.534;2024-03-23T04:09:56;8.20;1.00
23122;DHT22;11730;51.248;22.534;2024-03-23T04:12:22;8.20;1.00
23122;DHT22;11730;51.248;22.534;2024-03-23T04:14:48;8.20;1.00
23122;DHT22;11730;51.248;22.534;2024-03-23T04:17:14;8.20;1.00
23122;DHT22;11730;51.248;22.534;2024-03-23T04:19:40;8.30;1.00
23122;DHT22;11730;51.248;22.534;2024-03-23T04:22:06;8.30;1.00
23122;DHT22;11730;51.248;22.534;2024-03-23T04:24:32;8.40;1.00
23122;DHT22;11730;51.248;22.534;2024-03-23T04:26:58;8.30;1.00
23122;DHT22;11730;51.248;22.534;2024-03-23T04:29:24;8.20;1.00
23122;DHT22;11730;51.248;22.534;2024-03-23T04:31:52;8.20;1.00
23122;DHT22;11730;51.248;22.534;2024-03-23T04:34:19;8.10;1.00
23122;DHT22;11730;51.248;22.534;2024-03-23T04:36:44;8.10;1.00
23122;DHT22;11730;51.248;22.534;2024-03-23T04:39:10;8.10;1.00
23122;DHT22;11730;51.248;22.534;2024-03-23T04:41:36;8.10;1.00
23122;DHT22;11730;51.248;22.534;2024-03-23T04:44:02;8.10;1.00
23122;DHT22;11730;51.248;22.534;2024-03-23T04:46:28;8.10;1.00
23122;DHT22;11730;51.248;22.534;2024-03-23T04:48:54;8.10;1.00
23122;DHT22;11730;51.248;22.534;2024-03-23T04:51:25;8.20;1.00
23122;DHT22;11730;51.248;22.534;2024-03-23T04:53:52;8.10;1.00
23122;DHT22;11730;51.248;22.534;2024-03-23T04:56:18;8.00;1.00
23122;DHT22;11730;51.248;22.534;2024-03-23T04:58:45;8.10;1.00
23122;DHT22;11730;51.248;22.534;2024-03-23T05:01:11;8.10;1.00
23122;DHT22;11730;51.248;22.534;2024-03-23T05:03:37;8.10;1.00
23122;DHT22;11730;51.248;22.534;2024-03-23T05:06:03;8.10;1.00
23122;DHT22;11730;51.248;22.534;2024-03-23T05:08:31;8.20;1.00
23122;DHT22;11730;51.248;22.534;2024-03-23T05:10:57;8.20;1.00
23122;DHT22;11730;51.248;22.534;2024-03-23T05:13:22;8.20;1.00
23122;DHT22;11730;51.248;22.534;2024-03-23T05:15:55;8.20;1.00
23122;DHT22;11730;51.248;22.534;2024-03-23T05:18:21;8.10;1.00
23122;DHT22;11730;51.248;22.534;2024-03-23T05:20:47;8.10;1.00
23122;DHT22;11730;51.248;22.534;2024-03-23T05:23:13;8.10;1.00
23122;DHT22;11730;51.248;22.534;2024-03-23T05:25:39;8.10;1.00
23122;DHT22;11730;51.248;22.534;2024-03-23T05:28:05;8.10;1.00
23122;DHT22;11730;51.248;22.534;2024-03-23T05:30:32;8.00;1.00
23122;DHT22;11730;51.248;22.534;2024-03-23T05:32:58;7.90;2.10
23122;DHT22;11730;51.248;22.534;2024-03-23T05:35:24;8.00;1.00
23122;DHT22;11730;51.248;22.534;2024-03-23T05:37:50;8.00;1.80
23122;DHT22;11730;51.248;22.534;2024-03-23T05:40:16;8.00;1.00
23122;DHT22;11730;51.248;22.534;2024-03-23T05:42:42;8.00;1.00
23122;DHT22;11730;51.248;22.534;2024-03-23T05:45:08;8.10;1.00
23122;DHT22;11730;51.248;22.534;2024-03-23T05:47:34;8.20;1.00
23122;DHT22;11730;51.248;22.534;2024-03-23T05:50:00;8.10;1.00
23122;DHT22;11730;51.248;22.534;2024-03-23T05:52:27;8.20;1.00
23122;DHT22;11730;51.248;22.534;2024-03-23T05:54:53;8.30;1.00
23122;DHT22;11730;51.248;22.534;2024-03-23T05:57:19;8.30;1.00
23122;DHT22;11730;51.248;22.534;2024-03-23T05:59:46;8.10;1.00
23122;DHT22;11730;51.248;22.534;2024-03-23T06:02:12;8.10;1.00
23122;DHT22;11730;51.248;22.534;2024-03-23T06:04:38;8.10;1.00
23122;DHT22;11730;51.248;22.534;2024-03-23T06:07:04;8.10;1.00
23122;DHT22;11730;51.248;22.534;2024-03-23T06:09:32;8.00;2.30
23122;DHT22;11730;51.248;22.534;2024-03-23T06:11:58;8.00;6.00
23122;DHT22;11730;51.248;22.534;2024-03-23T06:14:24;8.00;8.50
23122;DHT22;11730;51.248;22.534;2024-03-23T06:16:50;8.00;8.50
23122;DHT22;11730;51.248;22.534;2024-03-23T06:19:16;8.00;11.10
23122;DHT22;11730;51.248;22.534;2024-03-23T06:21:45;8.10;14.20
23122;DHT22;11730;51.248;22.534;2024-03-23T06:24:11;8.20;14.10
23122;DHT22;11730;51.248;22.534;2024-03-23T06:26:38;8.10;9.10
23122;DHT22;11730;51.248;22.534;2024-03-23T06:29:04;8.20;10.70
23122;DHT22;11730;51.248;22.534;2024-03-23T06:31:31;8.20;8.30
23122;DHT22;11730;51.248;22.534;2024-03-23T06:33:57;8.30;3.70
23122;DHT22;11730;51.248;22.534;2024-03-23T06:36:23;8.20;1.00
23122;DHT22;11730;51.248;22.534;2024-03-23T06:38:49;8.20;1.00
23122;DHT22;11730;51.248;22.534;2024-03-23T06:41:15;8.20;1.00
23122;DHT22;11730;51.248;22.534;2024-03-23T06:43:41;8.20;1.90
23122;DHT22;11730;51.248;22.534;2024-03-23T06:46:07;8.20;2.10
23122;DHT22;11730;51.248;22.534;2024-03-23T06:48:33;8.30;7.00
23122;DHT22;11730;51.248;22.534;2024-03-23T06:50:59;8.30;1.00
23122;DHT22;11730;51.248;22.534;2024-03-23T06:53:25;8.40;1.00
23122;DHT22;11730;51.248;22.534;2024-03-23T06:55:52;8.30;1.00
23122;DHT22;11730;51.248;22.534;2024-03-23T06:58:23;8.20;2.90
23122;DHT22;11730;51.248;22.534;2024-03-23T07:00:49;8.20;9.30
23122;DHT22;11730;51.248;22.534;2024-03-23T07:03:17;8.30;7.40
23122;DHT22;11730;51.248;22.534;2024-03-23T07:05:43;8.30;5.10
23122;DHT22;11730;51.248;22.534;2024-03-23T07:08:09;8.40;1.60
23122;DHT22;11730;51.248;22.534;2024-03-23T07:10:35;8.30;1.00
23122;DHT22;11730;51.248;22.534;2024-03-23T07:13:01;8.50;1.00
23122;DHT22;11730;51.248;22.534;2024-03-23T07:15:27;8.50;1.00
23122;DHT22;11730;51.248;22.534;2024-03-23T07:17:53;8.40;1.00
23122;DHT22;11730;51.248;22.534;2024-03-23T07:20:19;8.50;1.00
23122;DHT22;11730;51.248;22.534;2024-03-23T07:22:46;8.40;1.00
23122;DHT22;11730;51.248;22.534;2024-03-23T07:25:13;8.40;1.00
23122;DHT22;11730;51.248;22.534;2024-03-23T07:27:39;8.40;1.00
23122;DHT22;11730;51.248;22.534;2024-03-23T07:30:06;8.50;1.00
23122;DHT22;11730;51.248;22.534;2024-03-23T07:32:32;8.50;1.00
23122;DHT22;11730;51.248;22.534;2024-03-23T07:34:58;8.50;1.00
23122;DHT22;11730;51.248;22.534;2024-03-23T07:37:24;8.30;1.00
23122;DHT22;11730;51.248;22.534;2024-03-23T07:39:51;8.40;2.40
23122;DHT22;11730;51.248;22.534;2024-03-23T07:42:17;8.40;1.00
23122;DHT22;11730;51.248;22.534;2024-03-23T07:44:43;8.40;1.00
23122;DHT22;11730;51.248;22.534;2024-03-23T07:47:09;8.30;3.10
23122;DHT22;11730;51.248;22.534;2024-03-23T07:49:35;8.30;6.30
23122;DHT22;11730;51.248;22.534;2024-03-23T07:52:01;8.30;1.00
23122;DHT22;11730;51.248;22.534;2024-03-23T07:54:27;8.40;1.00
23122;DHT22;11730;51.248;22.534;2024-03-23T07:56:53;8.20;2.30
23122;DHT22;11730;51.248;22.534;2024-03-23T07:59:19;8.40;14.20
23122;DHT22;11730;51.248;22.534;2024-03-23T08:01:45;8.20;33.20
23122;DHT22;11730;51.248;22.534;2024-03-23T08:04:11;9.30;47.70
23122;DHT22;11730;51.248;22.534;2024-03-23T08:06:38;9.00;55.40
23122;DHT22;11730;51.248;22.534;2024-03-23T08:09:04;9.00;58.30
23122;DHT22;11730;51.248;22.534;2024-03-23T08:11:31;9.10;58.20
23122;DHT22;11730;51.248;22.534;2024-03-23T08:13:57;8.80;60.40
23122;DHT22;11730;51.248;22.534;2024-03-23T08:16:24;8.90;61.30
23122;DHT22;11730;51.248;22.534;2024-03-23T08:18:53;8.90;62.70
23122;DHT22;11730;51.248;22.534;2024-03-23T08:21:21;9.10;66.40
23122;DHT22;11730;51.248;22.534;2024-03-23T08:23:47;8.90;69.10
23122;DHT22;11730;51.248;22.534;2024-03-23T08:26:16;9.10;68.60
23122;DHT22;11730;51.248;22.534;2024-03-23T08:28:43;9.00;70.40
23122;DHT22;11730;51.248;22.534;2024-03-23T08:31:11;9.00;72.50
23122;DHT22;11730;51.248;22.534;2024-03-23T08:33:37;8.90;75.30
23122;DHT22;11730;51.248;22.534;2024-03-23T08:36:08;9.20;77.60
23122;DHT22;11730;51.248;22.534;2024-03-23T08:38:34;9.30;77.70
23122;DHT22;11730;51.248;22.534;2024-03-23T08:41:05;9.30;77.10
23122;DHT22;11730;51.248;22.534;2024-03-23T08:43:35;9.50;77.90
23122;DHT22;11730;51.248;22.534;2024-03-23T08:46:05;9.60;78.90
23122;DHT22;11730;51.248;22.534;2024-03-23T08:48:34;9.40;76.20
23122;DHT22;11730;51.248;22.534;2024-03-23T08:51:07;9.60;73.40
23122;DHT22;11730;51.248;22.534;2024-03-23T08:53:37;9.40;71.30
23122;DHT22;11730;51.248;22.534;2024-03-23T08:56:04;9.40;74.00
23122;DHT22;11730;51.248;22.534;2024-03-23T08:58:31;9.60;75.90
23122;DHT22;11730;51.248;22.534;2024-03-23T09:01:06;9.40;78.00
23122;DHT22;11730;51.248;22.534;2024-03-23T09:03:32;9.60;78.30
23122;DHT22;11730;51.248;22.534;2024-03-23T09:05:59;9.60;76.90
23122;DHT22;11730;51.248;22.534;2024-03-23T09:08:25;9.40;75.70
23122;DHT22;11730;51.248;22.534;2024-03-23T09:10:52;9.80;67.20
23122;DHT22;11730;51.248;22.534;2024-03-23T09:13:18;9.70;67.80
23122;DHT22;11730;51.248;22.534;2024-03-23T09:15:51;9.40;70.70
23122;DHT22;11730;51.248;22.534;2024-03-23T09:18:22;9.50;65.50
23122;DHT22;11730;51.248;22.534;2024-03-23T09:20:48;9.40;58.60
23122;DHT22;11730;51.248;22.534;2024-03-23T09:23:14;9.40;57.90
23122;DHT22;11730;51.248;22.534;2024-03-23T09:25:40;9.60;43.40
23122;DHT22;11730;51.248;22.534;2024-03-23T09:28:07;9.40;39.00
23122;DHT22;11730;51.248;22.534;2024-03-23T09:30:35;9.50;50.30
23122;DHT22;11730;51.248;22.534;2024-03-23T09:33:02;9.20;59.60
23122;DHT22;11730;51.248;22.534;2024-03-23T09:35:28;9.50;68.90
23122;DHT22;11730;51.248;22.534;2024-03-23T09:37:54;9.30;58.40
23122;DHT22;11730;51.248;22.534;2024-03-23T09:40:20;9.70;49.60
23122;DHT22;11730;51.248;22.534;2024-03-23T09:42:50;9.30;46.80
23122;DHT22;11730;51.248;22.534;2024-03-23T09:45:29;9.60;44.30
23122;DHT22;11730;51.248;22.534;2024-03-23T09:47:55;9.70;49.60
23122;DHT22;11730;51.248;22.534;2024-03-23T09:50:22;10.40;44.10
23122;DHT22;11730;51.248;22.534;2024-03-23T09:52:48;9.40;35.60
23122;DHT22;11730;51.248;22.534;2024-03-23T09:55:14;9.60;50.90
23122;DHT22;11730;51.248;22.534;2024-03-23T09:57:41;9.50;42.60
23122;DHT22;11730;51.248;22.534;2024-03-23T10:00:08;9.70;35.30
23122;DHT22;11730;51.248;22.534;2024-03-23T10:02:35;9.50;44.30
23122;DHT22;11730;51.248;22.534;2024-03-23T10:05:01;9.70;54.30
23122;DHT22;11730;51.248;22.534;2024-03-23T10:07:27;9.40;62.90
23122;DHT22;11730;51.248;22.534;2024-03-23T10:09:56;9.60;61.10
23122;DHT22;11730;51.248;22.534;2024-03-23T10:12:23;9.70;42.00
23122;DHT22;11730;51.248;22.534;2024-03-23T10:14:50;9.90;25.20
23122;DHT22;11730;51.248;22.534;2024-03-23T10:17:21;9.70;29.80
23122;DHT22;11730;51.248;22.534;2024-03-23T10:19:51;9.80;42.10
23122;DHT22;11730;51.248;22.534;2024-03-23T10:22:19;9.90;46.30
23122;DHT22;11730;51.248;22.534;2024-03-23T10:24:45;9.60;39.50
23122;DHT22;11730;51.248;22.534;2024-03-23T10:27:21;9.80;37.30
23122;DHT22;11730;51.248;22.534;2024-03-23T10:29:48;9.90;46.60
23122;DHT22;11730;51.248;22.534;2024-03-23T10:32:16;9.60;44.10
23122;DHT22;11730;51.248;22.534;2024-03-23T10:34:42;9.50;46.70
23122;DHT22;11730;51.248;22.534;2024-03-23T10:37:09;9.80;43.40
23122;DHT22;11730;51.248;22.534;2024-03-23T10:39:37;9.70;44.70
23122;DHT22;11730;51.248;22.534;2024-03-23T10:42:05;9.80;18.50
23122;DHT22;11730;51.248;22.534;2024-03-23T10:44:32;9.90;42.70
23122;DHT22;11730;51.248;22.534;2024-03-23T10:46:59;9.90;37.00
23122;DHT22;11730;51.248;22.534;2024-03-23T10:49:28;9.70;34.70
23122;DHT22;11730;51.248;22.534;2024-03-23T10:51:57;9.90;50.70
23122;DHT22;11730;51.248;22.534;2024-03-23T10:54:27;9.80;52.90
23122;DHT22;11730;51.248;22.534;2024-03-23T10:57:04;10.20;50.30
23122;DHT22;11730;51.248;22.534;2024-03-23T10:59:32;10.30;1.00
23122;DHT22;11730;51.248;22.534;2024-03-23T11:02:00;10.60;12.00
23122;DHT22;11730;51.248;22.534;2024-03-23T11:04:35;10.80;1.00
23122;DHT22;11730;51.248;22.534;2024-03-23T11:07:01;11.00;21.00
23122;DHT22;11730;51.248;22.534;2024-03-23T11:09:43;11.40;1.00
23122;DHT22;11730;51.248;22.534;2024-03-23T11:17:23;12.50;1.00
23122;DHT22;11730;51.248;22.534;2024-03-23T11:20:08;12.50;1.00
23122;DHT22;11730;51.248;22.534;2024-03-23T11:22:42;12.10;1.00
23122;DHT22;11730;51.248;22.534;2024-03-23T11:25:24;12.40;1.00
23122;DHT22;11730;51.248;22.534;2024-03-23T11:27:52;12.40;1.00
23122;DHT22;11730;51.248;22.534;2024-03-23T11:30:23;12.70;1.00
23122;DHT22;11730;51.248;22.534;2024-03-23T11:32:51;13.10;1.00
23122;DHT22;11730;51.248;22.534;2024-03-23T11:35:40;13.30;1.00
23122;DHT22;11730;51.248;22.534;2024-03-23T11:43:05;13.40;1.00
23122;DHT22;11730;51.248;22.534;2024-03-23T11:45:51;14.00;1.00
23122;DHT22;11730;51.248;22.534;2024-03-23T11:48:22;13.60;1.00
23122;DHT22;11730;51.248;22.534;2024-03-23T11:50:49;13.70;1.00
23122;DHT22;11730;51.248;22.534;2024-03-23T11:53:18;13.50;1.00
23122;DHT22;11730;51.248;22.534;2024-03-23T11:58:11;13.50;1.00
23122;DHT22;11730;51.248;22.534;2024-03-23T12:00:38;14.00;1.00
23122;DHT22;11730;51.248;22.534;2024-03-23T12:03:05;14.00;1.00
23122;DHT22;11730;51.248;22.534;2024-03-23T12:05:34;14.00;1.00
23122;DHT22;11730;51.248;22.534;2024-03-23T12:08:21;14.00;1.00
23122;DHT22;11730;51.248;22.534;2024-03-23T12:10:52;13.80;1.00
23122;DHT22;11730;51.248;22.534;2024-03-23T12:13:19;14.30;1.00
23122;DHT22;11730;51.248;22.534;2024-03-23T12:15:47;14.70;1.00
23122;DHT22;11730;51.248;22.534;2024-03-23T12:18:13;15.00;1.00
23122;DHT22;11730;51.248;22.534;2024-03-23T12:20:39;15.00;1.00
23122;DHT22;11730;51.248;22.534;2024-03-23T12:23:10;15.40;1.00
23122;DHT22;11730;51.248;22.534;2024-03-23T12:25:38;15.80;1.00
23122;DHT22;11730;51.248;22.534;2024-03-23T12:28:05;16.00;1.00
23122;DHT22;11730;51.248;22.534;2024-03-23T12:30:39;16.20;1.00
23122;DHT22;11730;51.248;22.534;2024-03-23T12:33:06;16.30;1.00
23122;DHT22;11730;51.248;22.534;2024-03-23T12:35:32;16.90;1.00
23122;DHT22;11730;51.248;22.534;2024-03-23T12:37:58;16.70;1.00
23122;DHT22;11730;51.248;22.534;2024-03-23T12:40:24;16.60;1.00
23122;DHT22;11730;51.248;22.534;2024-03-23T12:42:50;16.80;99.90
23122;DHT22;11730;51.248;22.534;2024-03-23T12:45:16;16.70;99.90
23122;DHT22;11730;51.248;22.534;2024-03-23T12:47:42;16.60;99.90
23122;DHT22;11730;51.248;22.534;2024-03-23T12:50:08;16.50;99.90
23122;DHT22;11730;51.248;22.534;2024-03-23T12:52:36;16.60;99.90
23122;DHT22;11730;51.248;22.534;2024-03-23T12:55:02;17.00;99.90
23122;DHT22;11730;51.248;22.534;2024-03-23T12:57:29;17.10;99.90
23122;DHT22;11730;51.248;22.534;2024-03-23T12:59:55;17.00;99.90
23122;DHT22;11730;51.248;22.534;2024-03-23T13:02:22;16.60;99.90
23122;DHT22;11730;51.248;22.534;2024-03-23T13:04:55;17.20;99.90
23122;DHT22;11730;51.248;22.534;2024-03-23T13:07:23;17.30;99.90
23122;DHT22;11730;51.248;22.534;2024-03-23T13:09:53;17.10;99.90
23122;DHT22;11730;51.248;22.534;2024-03-23T13:12:19;17.10;99.90
23122;DHT22;11730;51.248;22.534;2024-03-23T13:14:46;16.90;99.90
23122;DHT22;11730;51.248;22.534;2024-03-23T13:17:13;17.00;99.90
23122;DHT22;11730;51.248;22.534;2024-03-23T13:19:39;16.70;99.90
23122;DHT22;11730;51.248;22.534;2024-03-23T13:22:05;16.40;99.90
23122;DHT22;11730;51.248;22.534;2024-03-23T13:24:32;16.40;99.90
23122;DHT22;11730;51.248;22.534;2024-03-23T13:26:58;16.50;99.90
23122;DHT22;11730;51.248;22.534;2024-03-23T13:29:24;16.50;99.90
23122;DHT22;11730;51.248;22.534;2024-03-23T13:31:51;16.40;99.90
23122;DHT22;11730;51.248;22.534;2024-03-23T13:34:18;16.50;99.90
23122;DHT22;11730;51.248;22.534;2024-03-23T13:36:45;16.80;99.90
23122;DHT22;11730;51.248;22.534;2024-03-23T13:39:11;17.10;99.90
23122;DHT22;11730;51.248;22.534;2024-03-23T13:41:39;17.60;99.90
23122;DHT22;11730;51.248;22.534;2024-03-23T13:44:06;17.50;99.90
23122;DHT22;11730;51.248;22.534;2024-03-23T13:46:32;17.90;99.90
23122;DHT22;11730;51.248;22.534;2024-03-23T13:48:59;18.00;99.90
23122;DHT22;11730;51.248;22.534;2024-03-23T13:51:25;17.70;99.90
23122;DHT22;11730;51.248;22.534;2024-03-23T13:53:55;17.60;99.90
23122;DHT22;11730;51.248;22.534;2024-03-23T13:56:28;17.60;99.90
23122;DHT22;11730;51.248;22.534;2024-03-23T13:58:56;17.60;99.90
23122;DHT22;11730;51.248;22.534;2024-03-23T14:01:23;17.20;99.90
23122;DHT22;11730;51.248;22.534;2024-03-23T14:03:50;16.90;99.90
23122;DHT22;11730;51.248;22.534;2024-03-23T14:06:16;16.60;99.90
23122;DHT22;11730;51.248;22.534;2024-03-23T14:08:42;16.60;99.90
23122;DHT22;11730;51.248;22.534;2024-03-23T14:11:09;16.50;99.90
23122;DHT22;11730;51.248;22.534;2024-03-23T14:13:36;16.30;99.90
23122;DHT22;11730;51.248;22.534;2024-03-23T14:16:02;16.40;99.90
23122;DHT22;11730;51.248;22.534;2024-03-23T14:18:28;16.30;99.90
23122;DHT22;11730;51.248;22.534;2024-03-23T14:20:59;16.40;99.90
23122;DHT22;11730;51.248;22.534;2024-03-23T14:23:26;16.40;99.90
23122;DHT22;11730;51.248;22.534;2024-03-23T14:25:53;16.60;99.90
23122;DHT22;11730;51.248;22.534;2024-03-23T14:28:20;16.80;99.90
23122;DHT22;11730;51.248;22.534;2024-03-23T14:30:47;16.90;99.90
23122;DHT22;11730;51.248;22.534;2024-03-23T14:33:13;16.90;99.90
23122;DHT22;11730;51.248;22.534;2024-03-23T14:35:39;16.90;99.90
23122;DHT22;11730;51.248;22.534;2024-03-23T14:38:05;16.90;99.90
23122;DHT22;11730;51.248;22.534;2024-03-23T14:40:31;16.70;99.90
23122;DHT22;11730;51.248;22.534;2024-03-23T14:42:57;16.60;99.90
23122;DHT22;11730;51.248;22.534;2024-03-23T14:45:23;16.60;99.90
23122;DHT22;11730;51.248;22.534;2024-03-23T14:47:53;16.50;99.90
23122;DHT22;11730;51.248;22.534;2024-03-23T14:50:19;16.50;99.90
23122;DHT22;11730;51.248;22.534;2024-03-23T14:52:47;16.60;99.90
23122;DHT22;11730;51.248;22.534;2024-03-23T14:55:13;16.50;99.90
23122;DHT22;11730;51.248;22.534;2024-03-23T14:57:39;16.70;99.90
23122;DHT22;11730;51.248;22.534;2024-03-23T15:00:07;16.60;99.90
23122;DHT22;11730;51.248;22.534;2024-03-23T15:02:34;16.70;99.90
23122;DHT22;11730;51.248;22.534;2024-03-23T15:05:01;16.70;99.90
23122;DHT22;11730;51.248;22.534;2024-03-23T15:07:27;16.50;99.90
23122;DHT22;11730;51.248;22.534;2024-03-23T15:09:54;16.50;99.90
23122;DHT22;11730;51.248;22.534;2024-03-23T15:12:20;16.40;99.90
23122;DHT22;11730;51.248;22.534;2024-03-23T15:14:47;16.50;99.90
23122;DHT22;11730;51.248;22.534;2024-03-23T15:17:13;16.60;99.90
23122;DHT22;11730;51.248;22.534;2024-03-23T15:19:39;16.80;99.90
23122;DHT22;11730;51.248;22.534;2024-03-23T15:22:07;16.60;99.90
23122;DHT22;11730;51.248;22.534;2024-03-23T15:24:34;16.40;99.90
23122;DHT22;11730;51.248;22.534;2024-03-23T15:27:02;16.30;99.90
23122;DHT22;11730;51.248;22.534;2024-03-23T15:29:28;16.20;99.90
23122;DHT22;11730;51.248;22.534;2024-03-23T15:31:54;16.10;99.90
23122;DHT22;11730;51.248;22.534;2024-03-23T15:34:21;15.90;99.90
23122;DHT22;11730;51.248;22.534;2024-03-23T15:36:50;15.90;99.90
23122;DHT22;11730;51.248;22.534;2024-03-23T15:39:19;15.80;99.90
23122;DHT22;11730;51.248;22.534;2024-03-23T15:41:45;15.70;99.90
23122;DHT22;11730;51.248;22.534;2024-03-23T15:44:12;15.40;99.90
23122;DHT22;11730;51.248;22.534;2024-03-23T15:46:38;15.20;99.90
23122;DHT22;11730;51.248;22.534;2024-03-23T15:49:05;15.20;99.90
23122;DHT22;11730;51.248;22.534;2024-03-23T15:51:31;15.10;99.90
23122;DHT22;11730;51.248;22.534;2024-03-23T15:54:00;14.90;99.90
23122;DHT22;11730;51.248;22.534;2024-03-23T15:56:28;14.90;99.90
23122;DHT22;11730;51.248;22.534;2024-03-23T15:58:55;14.70;99.90
23122;DHT22;11730;51.248;22.534;2024-03-23T16:01:20;14.60;99.90
23122;DHT22;11730;51.248;22.534;2024-03-23T16:03:47;14.60;99.90
23122;DHT22;11730;51.248;22.534;2024-03-23T16:06:13;14.60;99.90
23122;DHT22;11730;51.248;22.534;2024-03-23T16:08:39;14.50;99.90
23122;DHT22;11730;51.248;22.534;2024-03-23T16:11:06;14.50;99.90
23122;DHT22;11730;51.248;22.534;2024-03-23T16:13:36;14.40;99.90
23122;DHT22;11730;51.248;22.534;2024-03-23T16:16:03;14.30;99.90
23122;DHT22;11730;51.248;22.534;2024-03-23T16:18:32;14.30;99.90
23122;DHT22;11730;51.248;22.534;2024-03-23T16:21:05;14.20;99.90
23122;DHT22;11730;51.248;22.534;2024-03-23T16:23:32;14.30;99.90
23122;DHT22;11730;51.248;22.534;2024-03-23T16:25:59;14.20;99.90
23122;DHT22;11730;51.248;22.534;2024-03-23T16:28:28;14.30;99.90
23122;DHT22;11730;51.248;22.534;2024-03-23T16:31:07;14.10;99.90
23122;DHT22;11730;51.248;22.534;2024-03-23T16:33:34;14.10;99.90
23122;DHT22;11730;51.248;22.534;2024-03-23T16:38:31;14.10;99.90
23122;DHT22;11730;51.248;22.534;2024-03-23T16:41:16;14.10;99.90